Terminal Aerodrome Forecast
Issued by NWS Cleveland, OH

Home | Current Version | Previous Version | Text Only | Print | Product List | Glossary On
Versions: 1 2 3 4 5 6 7 8 9 10 11 12 13 14 15
000
FTUS41 KCLE 251100
TAFYNG
TAF
KYNG 251137Z 2512/2612 16008KT P6SM SCT150 BKN250
     FM251500 21015G22KT P6SM SCT050 BKN150
      TEMPO 2521/2523 4SM -TSRA BKN045CB OVC080
     FM252300 19010KT P6SM SCT050 OVC120=

USA.gov is the U.S. government's official web portal to all federal, state and local government web resources and services.